createdAt,value
2022-08-14T00:00:01.041Z,19.50
2022-08-14T00:01:01.049Z,19.51
2022-08-14T00:02:01.664Z,19.55
2022-08-14T00:03:01.007Z,19.62
2022-08-14T00:04:01.340Z,19.68
2022-08-14T00:05:00.994Z,19.74
2022-08-14T00:06:01.055Z,19.78
2022-08-14T00:07:00.947Z,19.86
2022-08-14T00:08:00.939Z,19.87
2022-08-14T00:09:01.173Z,19.91
2022-08-14T00:10:50.231Z,19.87
2022-08-14T00:11:00.905Z,19.87
2022-08-14T00:12:00.891Z,19.88
2022-08-14T00:13:01.168Z,19.91
2022-08-14T00:14:01.979Z,19.94
2022-08-14T00:15:00.856Z,19.94
2022-08-14T00:16:00.834Z,19.95
2022-08-14T00:17:00.912Z,19.92
2022-08-14T00:18:00.865Z,19.81
2022-08-14T00:19:06.579Z,19.68
2022-08-14T00:20:00.823Z,19.59
2022-08-14T00:21:00.814Z,19.51
2022-08-14T00:22:00.796Z,19.44
2022-08-14T00:23:11.920Z,19.41
2022-08-14T00:24:01.704Z,19.41
2022-08-14T00:25:00.706Z,19.41
2022-08-14T00:26:06.051Z,19.44
2022-08-14T00:27:02.297Z,19.46
2022-08-14T00:28:00.658Z,19.47
2022-08-14T00:29:00.664Z,19.50
2022-08-14T00:30:00.630Z,19.50
2022-08-14T00:31:00.663Z,19.48
2022-08-14T00:32:00.633Z,19.44
2022-08-14T00:33:00.605Z,19.39
2022-08-14T00:34:37.521Z,19.33
2022-08-14T00:35:00.563Z,19.31
2022-08-14T00:36:36.866Z,19.33
2022-08-14T00:37:00.585Z,19.31
2022-08-14T00:38:00.531Z,19.29
2022-08-14T00:39:00.535Z,19.29
2022-08-14T00:40:00.602Z,19.26
2022-08-14T00:41:00.494Z,19.21
2022-08-14T00:42:01.101Z,19.13
2022-08-14T00:43:00.460Z,19.07
2022-08-14T00:44:00.452Z,19.04
2022-08-14T00:45:00.469Z,19.00
2022-08-14T00:46:00.437Z,19.00
2022-08-14T00:47:01.085Z,18.95
2022-08-14T00:48:00.467Z,18.91
2022-08-14T00:49:00.389Z,18.88
2022-08-14T00:50:00.373Z,18.90
2022-08-14T00:51:00.376Z,18.88
2022-08-14T00:52:00.377Z,18.90
2022-08-14T00:53:00.423Z,18.85
2022-08-14T00:54:00.309Z,18.85
2022-08-14T00:55:01.364Z,18.80
2022-08-14T00:56:00.289Z,18.62
2022-08-14T00:57:00.280Z,18.23
2022-08-14T00:58:00.296Z,17.92
2022-08-14T00:59:00.269Z,17.62
2022-08-14T01:00:00.234Z,17.36
2022-08-14T01:01:00.292Z,17.26
2022-08-14T01:02:00.241Z,17.28
2022-08-14T01:03:00.441Z,17.40
2022-08-14T01:04:00.196Z,17.52
2022-08-14T01:05:00.192Z,17.71
2022-08-14T01:06:00.573Z,17.87
2022-08-14T01:07:00.148Z,18.03
2022-08-14T01:08:00.130Z,18.15
2022-08-14T01:09:00.139Z,18.25
2022-08-14T01:10:00.122Z,18.30
2022-08-14T01:11:00.083Z,18.35
2022-08-14T01:12:02.744Z,18.39
2022-08-14T01:13:00.083Z,18.39
2022-08-14T01:14:00.982Z,18.39
2022-08-14T01:15:00.060Z,18.37
2022-08-14T01:16:02.608Z,18.32
2022-08-14T01:17:00.097Z,18.21
2022-08-14T01:18:00.016Z,18.15
2022-08-14T01:19:02.283Z,18.14
2022-08-14T01:19:59.980Z,18.15
2022-08-14T01:20:59.960Z,18.14
2022-08-14T01:21:59.934Z,18.14
2022-08-14T01:22:59.969Z,18.18
2022-08-14T01:23:59.920Z,18.23
2022-08-14T01:24:59.905Z,18.23
2022-08-14T01:25:59.875Z,18.20
2022-08-14T01:27:00.560Z,18.17
2022-08-14T01:27:59.875Z,18.18
2022-08-14T01:28:59.863Z,18.21
2022-08-14T01:30:04.138Z,18.18
2022-08-14T01:30:59.866Z,18.03
2022-08-14T01:31:59.798Z,17.77
2022-08-14T01:32:59.785Z,17.49
2022-08-14T01:35:17.634Z,17.22
2022-08-14T01:36:04.747Z,16.97
2022-08-14T01:36:22.786Z,16.88
2022-08-14T01:36:59.745Z,16.93
2022-08-14T01:37:59.849Z,17.01
2022-08-14T01:38:59.720Z,17.08
2022-08-14T01:39:59.730Z,17.15
2022-08-14T01:40:59.684Z,17.25
2022-08-14T01:41:59.661Z,17.34
2022-08-14T01:42:59.687Z,17.38
2022-08-14T01:43:59.655Z,17.43
2022-08-14T01:44:59.620Z,17.41
2022-08-14T01:46:06.775Z,17.43
2022-08-14T01:47:01.132Z,17.48
2022-08-14T01:48:03.038Z,17.56
2022-08-14T01:48:59.594Z,17.63
2022-08-14T01:50:01.848Z,17.55
2022-08-14T01:50:59.550Z,17.43
2022-08-14T01:51:59.536Z,17.40
2022-08-14T01:53:01.240Z,17.43
2022-08-14T01:53:59.517Z,17.49
2022-08-14T01:54:59.483Z,17.55
2022-08-14T01:55:59.470Z,17.51
2022-08-14T01:56:59.472Z,17.40
2022-08-14T01:58:18.164Z,17.36
2022-08-14T01:58:59.476Z,17.38
2022-08-14T01:59:59.433Z,17.44
2022-08-14T02:00:59.455Z,17.54
2022-08-14T02:01:59.589Z,17.59
2022-08-14T02:02:59.383Z,17.70
2022-08-14T02:03:59.393Z,17.77
2022-08-14T02:04:59.353Z,17.84
2022-08-14T02:05:59.348Z,17.89
2022-08-14T02:06:59.367Z,17.90
2022-08-14T02:08:08.903Z,17.74
2022-08-14T02:08:59.306Z,17.55
2022-08-14T02:09:59.301Z,17.36
2022-08-14T02:10:59.272Z,17.19
2022-08-14T02:11:59.286Z,17.03
2022-08-14T02:12:59.633Z,16.86
2022-08-14T02:13:59.227Z,16.71
2022-08-14T02:15:01.364Z,16.64
2022-08-14T02:15:59.229Z,16.58
2022-08-14T02:16:59.250Z,16.52
2022-08-14T02:17:59.192Z,16.46
2022-08-14T02:18:59.168Z,16.42
2022-08-14T02:19:59.167Z,16.42
2022-08-14T02:20:59.171Z,16.49
2022-08-14T02:22:03.143Z,16.61
2022-08-14T02:22:59.133Z,16.68
2022-08-14T02:23:59.104Z,16.68
2022-08-14T02:24:59.087Z,16.70
2022-08-14T02:25:59.062Z,16.67
2022-08-14T02:28:25.438Z,16.70
2022-08-14T02:29:03.383Z,16.67
2022-08-14T02:29:08.560Z,16.67
2022-08-14T02:30:08.496Z,16.63
2022-08-14T02:31:08.841Z,16.58
2022-08-14T02:32:08.467Z,16.61
2022-08-14T02:33:08.473Z,16.60
2022-08-14T02:34:14.756Z,16.53
2022-08-14T02:35:08.443Z,16.53
2022-08-14T02:37:03.422Z,16.58
2022-08-14T02:37:10.569Z,16.68
2022-08-14T02:38:11.493Z,16.75
2022-08-14T02:39:08.403Z,16.79
2022-08-14T02:40:08.387Z,16.79
2022-08-14T02:41:08.984Z,16.86
2022-08-14T02:42:13.294Z,16.89
2022-08-14T02:43:08.554Z,16.82
2022-08-14T02:44:08.310Z,16.71
2022-08-14T02:45:08.301Z,16.60
2022-08-14T02:46:08.304Z,16.53
2022-08-14T02:47:15.154Z,16.49
2022-08-14T02:48:10.176Z,16.46
2022-08-14T02:49:08.251Z,16.43
2022-08-14T02:50:08.278Z,16.43
2022-08-14T02:51:09.162Z,16.46
2022-08-14T02:52:26.653Z,16.58
2022-08-14T02:53:08.700Z,16.68
2022-08-14T02:54:08.217Z,16.82
2022-08-14T02:55:08.169Z,16.96
2022-08-14T02:56:29.479Z,17.08
2022-08-14T02:57:39.297Z,17.18
2022-08-14T02:58:08.143Z,17.26
2022-08-14T02:59:08.144Z,17.31
2022-08-14T03:00:10.238Z,17.30
2022-08-14T03:01:08.129Z,17.31
2022-08-14T03:02:08.110Z,17.33
2022-08-14T03:03:08.323Z,17.33
2022-08-14T03:04:08.072Z,17.33
2022-08-14T03:05:08.031Z,17.34
2022-08-14T03:06:08.932Z,17.37
2022-08-14T03:07:08.392Z,17.41
2022-08-14T03:08:08.075Z,17.46
2022-08-14T03:09:08.005Z,17.49
2022-08-14T03:10:28.209Z,17.48
2022-08-14T03:11:08.351Z,17.48
2022-08-14T03:12:07.959Z,17.37
2022-08-14T03:13:13.668Z,17.22
2022-08-14T03:14:07.922Z,17.11
2022-08-14T03:15:07.922Z,16.97
2022-08-14T03:16:09.262Z,16.89
2022-08-14T03:17:07.908Z,16.85
2022-08-14T03:18:07.870Z,16.81
2022-08-14T03:19:07.842Z,16.76
2022-08-14T03:20:11.059Z,16.68
2022-08-14T03:21:08.067Z,16.66
2022-08-14T03:22:09.371Z,16.67
2022-08-14T03:23:07.828Z,16.66
2022-08-14T03:24:07.775Z,16.63
2022-08-14T03:25:07.784Z,16.67
2022-08-14T03:26:07.784Z,16.78
2022-08-14T03:27:07.784Z,16.85
2022-08-14T03:28:07.722Z,16.88
2022-08-14T03:29:07.720Z,16.88
2022-08-14T03:30:14.465Z,16.93
2022-08-14T03:31:08.215Z,16.94
2022-08-14T03:32:07.682Z,16.97
2022-08-14T03:33:07.668Z,17.00
2022-08-14T03:34:10.080Z,17.04
2022-08-14T03:35:08.845Z,17.04
2022-08-14T03:37:28.479Z,17.06
2022-08-14T03:39:10.585Z,17.07
2022-08-14T03:39:21.991Z,17.08
2022-08-14T03:39:28.352Z,17.14
2022-08-14T03:40:27.880Z,17.16
2022-08-14T03:41:27.877Z,17.22
2022-08-14T03:42:31.194Z,17.28
2022-08-14T03:43:28.427Z,17.33
2022-08-14T03:45:19.031Z,17.33
2022-08-14T03:45:38.719Z,17.33
2022-08-14T03:46:38.774Z,17.21
2022-08-14T03:47:46.111Z,17.06
2022-08-14T03:48:31.112Z,16.88
2022-08-14T03:49:29.198Z,16.78
2022-08-14T03:50:30.840Z,16.67
2022-08-14T03:51:27.729Z,16.61
2022-08-14T03:52:38.413Z,16.57
2022-08-14T03:53:27.676Z,16.52
2022-08-14T03:54:27.711Z,16.49
2022-08-14T03:55:27.647Z,16.49
2022-08-14T03:56:27.834Z,16.48
2022-08-14T03:57:27.654Z,16.43
2022-08-14T03:58:35.120Z,16.35
2022-08-14T03:59:28.514Z,16.27
2022-08-14T04:00:43.703Z,16.15
2022-08-14T04:01:29.410Z,16.05
2022-08-14T04:02:33.019Z,15.97
2022-08-14T04:03:27.580Z,15.93
2022-08-14T04:04:27.534Z,15.93
2022-08-14T04:05:27.559Z,15.92
2022-08-14T04:06:28.466Z,15.90
2022-08-14T04:07:27.490Z,15.90
2022-08-14T04:08:31.018Z,15.92
2022-08-14T04:09:27.495Z,15.94
2022-08-14T04:10:32.229Z,15.96
2022-08-14T04:11:27.467Z,15.96
2022-08-14T04:12:27.431Z,16.01
2022-08-14T04:13:27.887Z,16.04
2022-08-14T04:14:27.418Z,16.11
2022-08-14T04:15:27.382Z,16.12
2022-08-14T04:16:31.412Z,16.14
2022-08-14T04:17:27.355Z,16.15
2022-08-14T04:18:27.347Z,16.20
2022-08-14T04:19:28.060Z,16.28
2022-08-14T04:20:27.353Z,16.35
2022-08-14T04:21:27.323Z,16.46
2022-08-14T04:22:27.301Z,16.52
2022-08-14T04:23:29.419Z,16.61
2022-08-14T04:24:27.292Z,16.63
2022-08-14T04:25:27.246Z,16.64
2022-08-14T04:26:42.239Z,16.66
2022-08-14T04:27:27.226Z,16.70
2022-08-14T04:29:08.248Z,16.71
2022-08-14T04:29:27.205Z,16.71
2022-08-14T04:30:32.799Z,16.73
2022-08-14T04:32:57.682Z,16.68
2022-08-14T04:33:20.649Z,16.66
2022-08-14T04:33:27.624Z,16.68
2022-08-14T04:34:28.229Z,16.71
2022-08-14T04:35:27.697Z,16.76
2022-08-14T04:36:27.141Z,16.79
2022-08-14T04:37:27.091Z,16.79
2022-08-14T04:38:37.320Z,16.83
2022-08-14T04:39:27.173Z,16.86
2022-08-14T04:40:27.820Z,16.89
2022-08-14T04:41:30.312Z,16.91
2022-08-14T04:42:27.029Z,16.93
2022-08-14T04:43:39.175Z,16.96
2022-08-14T04:44:36.709Z,16.98
2022-08-14T04:45:29.611Z,17.00
2022-08-14T04:46:56.697Z,17.04
2022-08-14T04:47:26.957Z,17.08
2022-08-14T04:48:38.962Z,17.14
2022-08-14T04:49:27.041Z,17.18
2022-08-14T04:50:43.446Z,17.22
2022-08-14T04:51:26.915Z,17.25
2022-08-14T04:52:26.894Z,17.26
2022-08-14T04:53:35.285Z,17.26
2022-08-14T04:54:27.006Z,17.31
2022-08-14T04:55:27.817Z,17.31
2022-08-14T04:56:34.262Z,17.36
2022-08-14T04:57:26.830Z,17.40
2022-08-14T04:58:32.230Z,17.43
2022-08-14T04:59:26.826Z,17.48
2022-08-14T05:00:26.807Z,17.48
2022-08-14T05:01:26.827Z,17.44
2022-08-14T05:02:26.838Z,17.38
2022-08-14T05:03:26.770Z,17.31
2022-08-14T05:04:26.735Z,17.21
2022-08-14T05:05:26.734Z,17.12
2022-08-14T05:06:34.924Z,17.03
2022-08-14T05:07:46.595Z,16.96
2022-08-14T05:08:31.762Z,16.88
2022-08-14T05:09:28.962Z,16.81
2022-08-14T05:10:32.192Z,16.73
2022-08-14T05:11:26.691Z,16.67
2022-08-14T05:13:13.212Z,16.64
2022-08-14T05:13:30.038Z,16.64
2022-08-14T05:14:46.729Z,16.64
2022-08-14T05:15:26.597Z,16.67
2022-08-14T05:16:26.587Z,16.71
2022-08-14T05:17:31.928Z,16.76
2022-08-14T05:19:17.207Z,16.79
2022-08-14T05:19:29.359Z,16.82
2022-08-14T05:21:54.284Z,16.78
2022-08-14T05:22:17.034Z,16.71
2022-08-14T05:22:27.150Z,16.61
2022-08-14T05:23:26.484Z,16.48
2022-08-14T05:24:26.492Z,16.39
2022-08-14T05:25:30.796Z,16.31
2022-08-14T05:26:26.456Z,16.25
2022-08-14T05:27:26.472Z,16.23
2022-08-14T05:28:26.424Z,16.21
2022-08-14T05:29:26.389Z,16.20
2022-08-14T05:30:26.415Z,16.20
2022-08-14T05:31:39.338Z,16.23
2022-08-14T05:32:27.775Z,16.25
2022-08-14T05:33:26.344Z,16.28
2022-08-14T05:34:28.752Z,16.35
2022-08-14T05:35:26.323Z,16.45
2022-08-14T05:36:27.147Z,16.57
2022-08-14T05:37:26.391Z,16.67
2022-08-14T05:38:31.824Z,16.79
2022-08-14T05:39:26.330Z,16.91
2022-08-14T05:40:26.263Z,17.03
2022-08-14T05:41:31.982Z,17.15
2022-08-14T05:42:29.328Z,17.26
2022-08-14T05:43:26.241Z,17.37
2022-08-14T05:44:29.926Z,17.51
2022-08-14T05:45:26.195Z,17.59
2022-08-14T05:46:26.176Z,17.68
2022-08-14T05:47:29.170Z,17.78
2022-08-14T05:48:33.804Z,17.86
2022-08-14T05:49:33.684Z,17.93
2022-08-14T05:50:26.126Z,17.97
2022-08-14T05:51:26.111Z,18.00
2022-08-14T05:52:38.337Z,18.03
2022-08-14T05:53:26.116Z,18.05
2022-08-14T05:54:27.104Z,18.08
2022-08-14T05:55:26.072Z,18.10
2022-08-14T05:56:26.082Z,18.10
2022-08-14T05:57:26.029Z,18.12
2022-08-14T05:58:40.985Z,18.15
2022-08-14T05:59:36.565Z,18.21
2022-08-14T06:00:29.973Z,18.29
2022-08-14T06:01:26.030Z,18.36
2022-08-14T06:02:26.017Z,18.42
2022-08-14T06:03:25.972Z,18.50
2022-08-14T06:04:25.945Z,18.54
2022-08-14T06:05:28.817Z,18.58
2022-08-14T06:06:26.157Z,18.62
2022-08-14T06:07:25.889Z,18.69
2022-08-14T06:08:35.401Z,18.76
2022-08-14T06:09:25.890Z,18.82
2022-08-14T06:10:25.854Z,18.88
2022-08-14T06:11:30.671Z,18.92
2022-08-14T06:12:55.119Z,18.98
2022-08-14T06:13:31.579Z,19.04
2022-08-14T06:14:25.805Z,19.10
2022-08-14T06:15:29.648Z,19.14
2022-08-14T06:16:25.781Z,19.22
2022-08-14T06:17:26.357Z,19.28
2022-08-14T06:18:25.749Z,19.32
2022-08-14T06:19:25.748Z,19.37
2022-08-14T06:20:25.735Z,19.41
2022-08-14T06:21:26.040Z,19.44
2022-08-14T06:22:25.684Z,19.50
2022-08-14T06:23:25.666Z,19.59
2022-08-14T06:24:26.109Z,19.63
2022-08-14T06:25:26.048Z,19.71
2022-08-14T06:26:30.459Z,19.78
2022-08-14T06:27:25.630Z,19.83
2022-08-14T06:28:28.083Z,19.88
2022-08-14T06:29:25.633Z,19.94
2022-08-14T06:30:30.299Z,19.96
2022-08-14T06:31:25.613Z,20.02
2022-08-14T06:32:37.503Z,20.05
2022-08-14T06:33:30.081Z,20.08
2022-08-14T06:35:13.559Z,20.13
2022-08-14T06:35:25.546Z,20.16
2022-08-14T06:36:25.509Z,20.20
2022-08-14T06:37:25.490Z,20.23
2022-08-14T06:38:25.482Z,20.26
2022-08-14T06:39:36.573Z,20.31
2022-08-14T06:40:28.430Z,20.33
2022-08-14T06:41:57.664Z,20.38
2022-08-14T06:42:32.982Z,20.43
2022-08-14T06:43:30.174Z,20.52
2022-08-14T06:44:32.307Z,20.52
2022-08-14T06:45:26.407Z,20.57
2022-08-14T06:46:34.167Z,20.61
2022-08-14T06:47:25.366Z,20.61
2022-08-14T06:48:25.374Z,20.67
2022-08-14T06:49:25.342Z,20.73
2022-08-14T06:50:27.791Z,20.77
2022-08-14T06:51:25.304Z,20.84
2022-08-14T06:52:25.281Z,20.88
2022-08-14T06:53:27.598Z,20.92
2022-08-14T06:54:31.115Z,20.95
2022-08-14T06:55:28.116Z,20.94
2022-08-14T06:56:25.242Z,20.95
2022-08-14T06:57:25.220Z,20.98
2022-08-14T06:58:29.163Z,21.01
2022-08-14T06:59:25.226Z,21.03
2022-08-14T07:00:27.449Z,21.06
2022-08-14T07:01:27.447Z,21.10
2022-08-14T07:02:25.258Z,21.10
2022-08-14T07:03:25.153Z,21.13
2022-08-14T07:04:25.157Z,21.16
2022-08-14T07:05:25.134Z,21.24
2022-08-14T07:06:45.411Z,21.31
2022-08-14T07:07:25.126Z,21.35
2022-08-14T07:08:25.793Z,21.42
2022-08-14T07:09:25.053Z,21.44
2022-08-14T07:10:25.462Z,21.50
2022-08-14T07:11:25.065Z,21.50
2022-08-14T07:12:54.077Z,21.53
2022-08-14T07:13:25.008Z,21.56
2022-08-14T07:14:24.994Z,21.59
2022-08-14T07:15:24.989Z,21.62
2022-08-14T07:16:27.344Z,21.67
2022-08-14T07:17:24.983Z,21.71
2022-08-14T07:18:24.955Z,21.80
2022-08-14T07:19:24.980Z,21.84
2022-08-14T07:20:31.309Z,21.90
2022-08-14T07:21:24.916Z,21.94
2022-08-14T07:22:24.930Z,21.99
2022-08-14T07:23:25.036Z,22.02
2022-08-14T07:24:31.021Z,22.07
2022-08-14T07:25:32.362Z,22.12
2022-08-14T07:26:25.034Z,22.17
2022-08-14T07:27:24.821Z,22.24
2022-08-14T07:28:24.843Z,22.35
2022-08-14T07:29:28.732Z,22.42
2022-08-14T07:30:33.866Z,22.52
2022-08-14T07:31:24.812Z,22.62
2022-08-14T07:32:34.028Z,22.72
2022-08-14T07:33:29.454Z,22.73
2022-08-14T07:34:36.495Z,22.72
2022-08-14T07:35:24.741Z,22.82
2022-08-14T07:36:27.416Z,22.92
2022-08-14T07:37:24.755Z,22.98
2022-08-14T07:38:24.679Z,23.05
2022-08-14T07:39:27.743Z,23.10
2022-08-14T07:40:27.659Z,23.15
2022-08-14T07:41:24.696Z,23.17
2022-08-14T07:42:24.671Z,23.25
2022-08-14T07:43:24.638Z,23.33
2022-08-14T07:44:32.419Z,23.46
2022-08-14T07:45:24.592Z,23.54
2022-08-14T07:46:29.594Z,23.57
2022-08-14T07:47:24.583Z,23.66
2022-08-14T07:48:25.310Z,23.72
2022-08-14T07:49:24.580Z,23.70
2022-08-14T07:50:24.515Z,23.76
2022-08-14T07:51:24.531Z,23.88
2022-08-14T07:52:30.578Z,23.91
2022-08-14T07:53:24.529Z,23.88
2022-08-14T07:54:30.487Z,23.91
2022-08-14T07:55:24.445Z,23.94
2022-08-14T07:56:47.993Z,24.02
2022-08-14T07:57:24.944Z,24.05
2022-08-14T07:58:31.617Z,24.12
2022-08-14T07:59:40.539Z,24.22
2022-08-14T08:00:31.051Z,24.27
2022-08-14T08:01:24.394Z,24.35
2022-08-14T08:02:24.375Z,24.39
2022-08-14T08:03:24.388Z,24.43
2022-08-14T08:04:25.249Z,24.53
2022-08-14T08:05:24.336Z,24.67
2022-08-14T08:06:24.310Z,24.85
2022-08-14T08:07:24.306Z,25.00
2022-08-14T08:08:26.474Z,25.05
2022-08-14T08:09:24.268Z,24.99
2022-08-14T08:10:46.160Z,25.03
2022-08-14T08:11:24.238Z,25.10
2022-08-14T08:12:30.216Z,25.25
2022-08-14T08:13:24.674Z,25.32
2022-08-14T08:14:24.225Z,25.33
2022-08-14T08:15:24.196Z,25.28
2022-08-14T08:16:24.258Z,25.23
2022-08-14T08:17:24.382Z,25.25
2022-08-14T08:18:27.463Z,25.39
2022-08-14T08:19:24.161Z,25.51
2022-08-14T08:20:24.146Z,25.64
2022-08-14T08:21:27.138Z,25.73
2022-08-14T08:22:27.442Z,25.82
2022-08-14T08:23:31.044Z,25.83
2022-08-14T08:24:24.077Z,25.82
2022-08-14T08:25:24.088Z,25.94
2022-08-14T08:26:24.113Z,26.05
2022-08-14T08:27:24.070Z,26.05
2022-08-14T08:28:26.410Z,26.02
2022-08-14T08:29:28.649Z,26.06
2022-08-14T08:30:24.014Z,26.02
2022-08-14T08:31:24.022Z,26.07
2022-08-14T08:32:30.031Z,26.12
2022-08-14T08:33:23.985Z,26.13
2022-08-14T08:34:24.348Z,26.26
2022-08-14T08:35:23.960Z,26.26
2022-08-14T08:36:23.925Z,26.30
2022-08-14T08:37:25.359Z,26.39
2022-08-14T08:39:18.147Z,26.52
2022-08-14T08:39:42.207Z,26.51
2022-08-14T08:40:24.010Z,26.54
2022-08-14T08:41:23.862Z,26.58
2022-08-14T08:42:31.167Z,26.62
2022-08-14T08:43:23.853Z,26.69
2022-08-14T08:44:31.804Z,26.80
2022-08-14T08:45:23.831Z,26.87
2022-08-14T08:46:24.286Z,26.99
2022-08-14T08:47:23.825Z,27.06
2022-08-14T08:48:31.201Z,27.14
2022-08-14T08:49:23.770Z,27.28
2022-08-14T08:50:31.847Z,27.46
2022-08-14T08:51:22.712Z,27.49
2022-08-14T08:52:25.054Z,27.51
2022-08-14T08:53:23.734Z,27.57
2022-08-14T08:54:26.672Z,27.50
2022-08-14T08:55:23.675Z,27.47
2022-08-14T08:56:30.197Z,27.50
2022-08-14T08:57:24.050Z,27.54
2022-08-14T08:58:24.902Z,27.50
2022-08-14T08:59:30.745Z,27.49
2022-08-14T09:00:25.522Z,27.47
2022-08-14T09:01:23.716Z,27.57
2022-08-14T09:02:26.178Z,27.72
2022-08-14T09:03:23.581Z,27.79
2022-08-14T09:04:23.581Z,27.85
2022-08-14T09:05:23.556Z,27.82
2022-08-14T09:07:00.051Z,27.85
2022-08-14T09:07:23.570Z,27.99
2022-08-14T09:08:30.874Z,28.06
2022-08-14T09:09:23.528Z,28.07
2022-08-14T09:10:23.499Z,28.02
2022-08-14T09:11:23.481Z,28.09
2022-08-14T09:12:23.475Z,28.09
2022-08-14T09:13:23.466Z,28.11
2022-08-14T09:14:23.459Z,28.22
2022-08-14T09:15:24.242Z,28.37
2022-08-14T09:16:25.066Z,28.54
2022-08-14T09:17:25.947Z,28.68
2022-08-14T09:18:23.383Z,28.78
2022-08-14T09:19:23.360Z,28.90
2022-08-14T09:20:26.472Z,29.04
2022-08-14T09:21:24.439Z,29.12
2022-08-14T09:22:35.159Z,29.26
2022-08-14T09:23:34.681Z,29.39
2022-08-14T09:24:29.689Z,29.39
2022-08-14T09:25:58.596Z,29.43
2022-08-14T09:26:23.277Z,29.45
2022-08-14T09:27:23.466Z,29.33
2022-08-14T09:28:24.219Z,29.18
2022-08-14T09:29:23.743Z,29.18
2022-08-14T09:30:30.918Z,29.26
2022-08-14T09:31:23.239Z,29.33
2022-08-14T09:32:58.725Z,29.41
2022-08-14T09:33:23.305Z,29.52
2022-08-14T09:34:28.230Z,29.52
2022-08-14T09:35:23.186Z,29.43
2022-08-14T09:36:23.172Z,29.33
2022-08-14T09:37:23.151Z,29.52
2022-08-14T09:38:25.914Z,29.70
2022-08-14T09:39:23.802Z,29.73
2022-08-14T09:40:23.309Z,29.86
2022-08-14T09:41:23.103Z,29.94
2022-08-14T09:42:33.401Z,30.02
2022-08-14T09:43:23.080Z,30.22
2022-08-14T09:44:23.116Z,30.45
2022-08-14T09:45:23.115Z,30.54
2022-08-14T09:46:25.750Z,30.45
2022-08-14T09:47:23.021Z,30.38
2022-08-14T09:48:29.847Z,30.46
2022-08-14T09:49:23.000Z,30.58
2022-08-14T09:50:25.738Z,30.73
2022-08-14T09:51:22.984Z,30.82
2022-08-14T09:52:33.469Z,30.76
2022-08-14T09:53:22.918Z,30.70
2022-08-14T09:54:23.891Z,30.73
2022-08-14T09:55:22.908Z,30.79
2022-08-14T09:56:30.090Z,30.89
2022-08-14T09:57:22.875Z,30.95
2022-08-14T09:58:24.669Z,31.06
2022-08-14T09:59:22.834Z,31.16
2022-08-14T10:00:28.290Z,31.02
2022-08-14T10:01:22.833Z,30.98
2022-08-14T10:02:22.892Z,30.95
2022-08-14T10:03:22.792Z,30.69
2022-08-14T10:04:34.681Z,30.58
2022-08-14T10:05:22.774Z,30.65
2022-08-14T10:06:22.745Z,30.86
2022-08-14T10:07:22.773Z,31.09
2022-08-14T10:08:26.313Z,31.26
2022-08-14T10:09:22.747Z,31.47
2022-08-14T10:10:23.475Z,31.61
2022-08-14T10:11:23.492Z,31.72
2022-08-14T10:12:28.801Z,31.89
2022-08-14T10:13:23.672Z,32.11
2022-08-14T10:14:29.317Z,32.29
2022-08-14T10:15:22.627Z,32.35
2022-08-14T10:16:27.192Z,32.18
2022-08-14T10:17:22.642Z,32.08
2022-08-14T10:18:22.629Z,32.07
2022-08-14T10:19:22.588Z,32.01
2022-08-14T10:20:40.846Z,32.07
2022-08-14T10:21:22.653Z,32.14
2022-08-14T10:23:11.982Z,32.29
2022-08-14T10:23:23.063Z,32.47
2022-08-14T10:24:23.404Z,32.60
2022-08-14T10:25:22.772Z,32.69
2022-08-14T10:26:28.447Z,32.63
2022-08-14T10:27:22.487Z,32.62
2022-08-14T10:28:57.448Z,32.52
2022-08-14T10:29:23.884Z,32.51
2022-08-14T10:30:25.452Z,32.51
2022-08-14T10:31:25.660Z,32.47
2022-08-14T10:32:28.726Z,32.45
2022-08-14T10:33:22.439Z,32.41
2022-08-14T10:34:29.103Z,32.33
2022-08-14T10:35:23.165Z,32.32
2022-08-14T10:36:34.895Z,32.19
2022-08-14T10:37:23.150Z,32.21
2022-08-14T10:38:22.350Z,32.30
2022-08-14T10:39:22.437Z,32.41
2022-08-14T10:40:44.290Z,32.44
2022-08-14T10:41:22.319Z,32.48
2022-08-14T10:42:22.340Z,32.45
2022-08-14T10:43:23.010Z,32.50
2022-08-14T10:44:22.277Z,32.56
2022-08-14T10:45:22.242Z,32.59
2022-08-14T10:47:37.086Z,32.59
2022-08-14T10:48:23.616Z,32.65
2022-08-14T10:48:42.163Z,32.65
2022-08-14T10:49:22.202Z,32.67
2022-08-14T10:50:22.184Z,32.72
2022-08-14T10:51:22.200Z,32.67
2022-08-14T10:52:22.193Z,32.63
2022-08-14T10:53:22.139Z,32.63
2022-08-14T10:54:37.266Z,32.62
2022-08-14T10:55:22.114Z,32.55
2022-08-14T10:56:34.230Z,32.55
2022-08-14T10:57:22.117Z,32.60
2022-08-14T10:58:22.091Z,32.70
2022-08-14T10:59:22.132Z,32.77
2022-08-14T11:00:30.166Z,32.79
2022-08-14T11:01:22.071Z,32.82
2022-08-14T11:02:35.946Z,32.89
2022-08-14T11:03:26.435Z,32.82
2022-08-14T11:04:25.822Z,32.63
2022-08-14T11:05:21.992Z,32.35
2022-08-14T11:06:22.060Z,32.22
2022-08-14T11:07:21.995Z,32.22
2022-08-14T11:08:21.963Z,32.26
2022-08-14T11:09:22.416Z,32.40
2022-08-14T11:10:21.922Z,32.55
2022-08-14T11:11:21.934Z,32.69
2022-08-14T11:12:33.914Z,32.78
2022-08-14T11:13:24.028Z,32.84
2022-08-14T11:14:22.985Z,32.81
2022-08-14T11:15:21.848Z,32.48
2022-08-14T11:16:21.839Z,32.28
2022-08-14T11:17:21.912Z,32.26
2022-08-14T11:18:35.795Z,32.32
2022-08-14T11:19:24.261Z,32.43
2022-08-14T11:20:24.004Z,32.51
2022-08-14T11:21:21.818Z,32.60
2022-08-14T11:22:55.785Z,32.67
2022-08-14T11:23:21.789Z,32.69
2022-08-14T11:24:50.740Z,32.74
2022-08-14T11:25:21.770Z,32.78
2022-08-14T11:26:21.879Z,32.79
2022-08-14T11:27:25.776Z,32.81
2022-08-14T11:28:21.733Z,32.55
2022-08-14T11:29:21.711Z,32.45
2022-08-14T11:30:50.161Z,32.50
2022-08-14T11:31:22.165Z,32.44
2022-08-14T11:32:21.680Z,32.37
2022-08-14T11:33:21.679Z,32.33
2022-08-14T11:34:31.851Z,32.38
2022-08-14T11:35:21.624Z,32.38
2022-08-14T11:36:21.618Z,32.47
2022-08-14T11:37:36.366Z,32.50
2022-08-14T11:38:21.755Z,32.59
2022-08-14T11:39:33.769Z,32.67
2022-08-14T11:40:24.248Z,32.66
2022-08-14T11:41:21.582Z,32.77
2022-08-14T11:42:56.511Z,32.89
2022-08-14T11:43:29.179Z,33.00
2022-08-14T11:44:46.712Z,33.00
2022-08-14T11:45:23.284Z,33.09
2022-08-14T11:46:30.371Z,33.15
2022-08-14T11:47:21.457Z,33.19
2022-08-14T11:49:02.800Z,33.23
2022-08-14T11:49:21.949Z,33.26
2022-08-14T11:50:33.488Z,33.15
2022-08-14T11:51:24.007Z,33.07
2022-08-14T11:52:21.728Z,33.11
2022-08-14T11:53:21.390Z,33.06
2022-08-14T11:54:34.430Z,32.88
2022-08-14T11:55:25.574Z,32.75
2022-08-14T11:56:25.274Z,32.74
2022-08-14T11:57:22.916Z,32.81
2022-08-14T11:58:24.266Z,32.77
2022-08-14T11:59:26.257Z,32.81
2022-08-14T12:00:21.287Z,32.93
2022-08-14T12:01:21.323Z,33.04
2022-08-14T12:03:00.661Z,33.09
2022-08-14T12:03:37.869Z,33.09
2022-08-14T12:04:21.727Z,33.11
2022-08-14T12:05:21.329Z,33.12
2022-08-14T12:06:29.044Z,33.19
2022-08-14T12:07:21.211Z,33.26
2022-08-14T12:08:24.600Z,33.29
2022-08-14T12:09:21.199Z,33.29
2022-08-14T12:10:26.164Z,33.31
2022-08-14T12:11:21.154Z,33.32
2022-08-14T12:12:35.963Z,33.35
2022-08-14T12:13:22.259Z,33.34
2022-08-14T12:14:30.277Z,33.35
2022-08-14T12:15:21.122Z,33.35
2022-08-14T12:16:21.092Z,33.34
2022-08-14T12:17:23.449Z,33.31
2022-08-14T12:18:21.052Z,33.32
2022-08-14T12:19:21.101Z,33.23
2022-08-14T12:20:30.000Z,33.03
2022-08-14T12:21:21.022Z,33.03
2022-08-14T12:22:29.468Z,33.03
2022-08-14T12:23:21.013Z,33.01
2022-08-14T12:24:35.776Z,33.04
2022-08-14T12:25:20.991Z,33.11
2022-08-14T12:26:39.845Z,33.15
2022-08-14T12:27:25.034Z,33.19
2022-08-14T12:28:27.060Z,33.26
2022-08-14T12:29:20.936Z,33.28
2022-08-14T12:30:21.295Z,33.29
2022-08-14T12:31:20.946Z,33.28
2022-08-14T12:32:20.871Z,33.28
2022-08-14T12:33:20.881Z,33.14
2022-08-14T12:34:22.828Z,32.99
2022-08-14T12:35:20.905Z,32.87
2022-08-14T12:36:20.978Z,32.72
2022-08-14T12:37:20.810Z,32.78
2022-08-14T12:38:21.287Z,32.85
2022-08-14T12:39:20.900Z,32.88
2022-08-14T12:40:21.128Z,32.97
2022-08-14T12:41:21.841Z,33.03
2022-08-14T12:42:27.114Z,33.09
2022-08-14T12:43:21.477Z,33.16
2022-08-14T12:44:20.770Z,33.15
2022-08-14T12:45:20.750Z,33.15
2022-08-14T12:46:26.624Z,33.12
2022-08-14T12:47:20.740Z,33.21
2022-08-14T12:48:31.342Z,33.31
2022-08-14T12:49:20.707Z,33.35
2022-08-14T12:50:20.670Z,33.44
2022-08-14T12:51:21.602Z,33.54
2022-08-14T12:52:20.651Z,33.63